RJCK

Details ICAO RJCK (KUH)
Name KUSHIRO
Region Japan
Timezone Asia/Tokyo (UTC+9.0)
Plans Departing 13
Arriving 12
Stats Elevation 327 ft / 100 m (AMSL)
Location 43.040970° 144.192986°
Runways 1
Magnetic Variation 8.950° W
Sunrise 2017-12-14 21:48:50 UTC / 2017-12-15 06:48:50 Local
Sunset 2017-12-15 06:50:20 UTC / 2017-12-15 15:50:20 Local
Advertisement - Login to hide

Runways

ID Width Length Bearing (true) Bearing (mag) Surface Threshold Offset Overrun Length
17 150 ft / 46 m 8,209 ft / 2,502 m 159.02° 167.97° Asphalt 0 ft / 0 m 200 ft / 61 m
35 150 ft / 46 m 8,209 ft / 2,502 m 339.03° 347.98° Asphalt 0 ft / 0 m 200 ft / 61 m

Approach Navaids

Runway Type Ident Frequency Range Bearing (true) Bearing (mag) Slope Elevation
17 Localiser IKS 108.90 MHz 18 nm / 33 km 159.03° 167.98° - 327 ft / 100 m (AMSL)
17 Glidescope IKS 108.90 MHz 10 nm / 19 km 159.03° 167.98° 3.00° 322 ft / 98 m (AMSL)

Map

Weather


0- 5 10 15 20 25 30 35+ Temperature / ° C

Clouds and Precipitation
Forecast for 2017-12-15 00:00 UTC. Updated 2 hours ago

Ground ~20,000 ft ~40,000 ft Winds

METAR

RJCK 142300Z 27004KT 230V030 9999 FEW030 M02/M06 Q1018

TAF

TAF RJCK 141710Z 1418/1600 27006KT 9999 FEW015 SCT040

Frequencies

Tower 126.20 MHz TWR
Tower 118.05 MHz TWR
Warning: Do not use this data for real-world aviation or navigation. No guarantee of current accuracy is given.